Sao Jose dos Pinhais, Brazil
Current Conditions -  °F | °C
As of 6:00 PM on Sunday 23 Nov 2014 (Local Time) from SBCT Reporting Station
Broken Clouds Broken Clouds  
Wind Chill: 68°   Ceiling: 1500
Heat Index: 68°   Visibility: 6mi
Dew Point: 61°   Wind: 12mph
Humidity: 78%   Direction: 90°E
Pressure: 30.03"   Gusts: NA
Location:  25.57°S, 49.18°W
Report Text: SBCT 232000Z 09010KT 9999 SCT013 BKN015 20/16 Q1017
Loading
Personal Weather Stations






























Interactive Weather Map New forecast layout! Learn more

10-Day Weather Forecast

Advertisements
Track Severe Weather on mobile